Time;durP1;ratioP1;P1;durP2;ratioP2;P2;SDS_P1;SDS_P2;PMS_P1;PMS_P2;Temp;Humidity;BMP_temperature;BMP_pressure;BME280_temperature;BME280_humidity;BME280_pressure;Samples;Min_cycle;Max_cycle;Signal;HPM_P1;HPM_P2
2022/04/10 00:00:55;;;;;;;44.48;22.32;;;;;;;0.45;92.48;97530.02;1752442;81;21428;-56
2022/04/10 00:03:22;;;;;;;47.43;24.87;;;;;;;0.49;91.38;97535.69;1751645;81;21018;-56
2022/04/10 00:05:51;;;;;;;54.58;24.37;;;;;;;0.46;91.20;97528.97;1739818;81;21028;-55
2022/04/10 00:08:17;;;;;;;40.05;23.57;;;;;;;0.48;90.56;97534.07;1751992;81;25556;-56
2022/04/10 00:10:43;;;;;;;43.65;24.47;;;;;;;0.45;91.65;97545.20;1752502;81;21019;-56
2022/04/10 00:13:10;;;;;;;40.95;23.70;;;;;;;0.49;91.64;97553.02;1752385;81;21039;-56
2022/04/10 00:15:36;;;;;;;43.08;23.20;;;;;;;0.47;91.90;97553.77;1752270;81;21004;-56
2022/04/10 00:18:01;;;;;;;37.70;23.12;;;;;;;0.48;91.03;97556.21;1749185;81;20845;-56
2022/04/10 00:20:28;;;;;;;48.02;23.75;;;;;;;0.45;92.19;97558.01;1743115;81;20841;-56
2022/04/10 00:22:54;;;;;;;47.30;24.35;;;;;;;0.48;92.99;97556.73;1755422;80;21097;-56
2022/04/10 00:25:20;;;;;;;51.35;30.05;;;;;;;0.51;93.24;97565.59;1749256;81;21183;-56
2022/04/10 00:27:46;;;;;;;45.78;26.35;;;;;;;0.53;93.44;97559.02;1754513;79;21027;-56
2022/04/10 00:30:15;;;;;;;42.78;25.45;;;;;;;0.58;93.37;97554.85;1755690;81;21002;-56
2022/04/10 00:32:41;;;;;;;49.35;26.40;;;;;;;0.61;93.21;97569.08;1752335;81;21020;-55
2022/04/10 00:35:09;;;;;;;44.20;24.57;;;;;;;0.61;93.31;97570.41;1752459;81;21020;-56
2022/04/10 00:37:36;;;;;;;41.73;23.38;;;;;;;0.66;92.34;97574.53;1760885;79;21233;-55
2022/04/10 00:40:03;;;;;;;42.08;22.93;;;;;;;0.63;91.45;97577.14;1770148;81;21440;-55
2022/04/10 00:42:40;;;;;;;40.30;22.17;;;;;;;0.68;91.19;97585.25;1742987;81;21286;-55
2022/04/10 00:45:08;;;;;;;41.85;23.52;;;;;;;0.67;91.43;97580.97;1748137;81;22136;-56
2022/04/10 00:47:34;;;;;;;53.17;26.77;;;;;;;0.72;91.40;97578.97;1751632;81;21016;-56
2022/04/10 00:50:03;;;;;;;49.30;27.32;;;;;;;0.64;93.10;97588.09;1747961;81;21464;-56
2022/04/10 00:52:32;;;;;;;49.60;25.80;;;;;;;0.70;92.24;97585.86;1742168;81;21444;-56
2022/04/10 00:54:58;;;;;;;40.43;21.52;;;;;;;0.69;92.40;97587.43;1770336;81;25479;-56
2022/04/10 00:57:24;;;;;;;37.25;21.12;;;;;;;0.71;92.43;97580.82;1756217;81;20989;-56
2022/04/10 00:59:50;;;;;;;51.83;29.72;;;;;;;0.70;91.44;97583.20;1752395;81;21460;-56
2022/04/10 01:02:16;;;;;;;45.38;26.50;;;;;;;0.64;93.50;97581.42;1752506;81;21350;-55
2022/04/10 01:04:42;;;;;;;44.98;25.30;;;;;;;0.70;93.40;97586.39;1752107;81;20862;-56
2022/04/10 01:07:11;;;;;;;40.38;22.70;;;;;;;0.69;92.42;97577.58;1752497;81;20881;-56
2022/04/10 01:09:36;;;;;;;35.10;18.77;;;;;;;0.72;92.66;97575.77;1745807;81;21016;-56
2022/04/10 01:12:02;;;;;;;40.00;21.60;;;;;;;0.69;91.30;97577.58;1738060;81;21562;-56
2022/04/10 01:14:28;;;;;;;43.45;22.90;;;;;;;0.70;91.93;97571.72;1737307;81;21250;-56
2022/04/10 01:16:54;;;;;;;43.92;25.45;;;;;;;0.74;92.22;97576.35;1738624;82;20999;-56
2022/04/10 01:19:20;;;;;;;44.05;21.87;;;;;;;0.74;92.22;97576.35;1751151;81;20860;-56
2022/04/10 01:21:46;;;;;;;41.18;20.57;;;;;;;0.74;91.34;97574.20;1755414;81;22110;-56
2022/04/10 01:24:15;;;;;;;34.55;21.82;;;;;;;0.74;92.67;97574.20;1749752;81;20829;-55
2022/04/10 01:26:41;;;;;;;;;;;;;;;0.81;91.60;97582.93;1740069;81;21125;-56
2022/04/10 01:29:11;;;;;;;40.40;22.73;;;;;;;0.84;93.03;97589.14;1747145;80;20166;-56
2022/04/10 01:31:38;;;;;;;41.58;22.22;;;;;;;0.84;92.76;97590.47;1747005;82;20962;-56
2022/04/10 01:34:13;;;;;;;45.50;25.82;;;;;;;0.87;92.04;97583.89;1746700;82;21465;-56
2022/04/10 01:36:40;;;;;;;39.63;23.80;;;;;;;0.84;93.33;97593.95;1740535;82;20999;-55
2022/04/10 01:39:07;;;;;;;66.25;28.73;;;;;;;0.89;93.16;97592.47;1745660;80;21486;-56
2022/04/10 01:41:36;;;;;;;42.70;24.15;;;;;;;0.81;92.87;97595.75;1751454;81;21440;-56
2022/04/10 01:44:04;;;;;;;44.10;23.65;;;;;;;0.81;93.56;97594.41;1742301;81;20968;-56
2022/04/10 01:46:31;;;;;;;42.20;23.15;;;;;;;0.76;93.23;97603.61;1752325;81;21015;-56
2022/04/10 01:48:57;;;;;;;42.75;23.98;;;;;;;0.82;93.19;97592.56;1742140;82;21284;-55
2022/04/10 01:51:24;;;;;;;43.48;24.43;;;;;;;0.82;91.97;97595.22;1747017;82;21102;-56
2022/04/10 01:53:51;;;;;;;43.50;24.80;;;;;;;0.89;92.13;97596.47;1746597;82;21457;-56
2022/04/10 01:56:17;;;;;;;44.25;25.52;;;;;;;0.96;91.75;97594.52;1746999;82;21064;-56
2022/04/10 01:58:45;;;;;;;43.73;22.98;;;;;;;0.98;92.58;97595.91;1746790;82;20866;-55
2022/04/10 02:01:14;;;;;;;39.95;21.62;;;;;;;1.00;92.27;97603.68;1747044;81;21013;-55
2022/04/10 02:03:40;;;;;;;40.40;22.40;;;;;;;1.01;92.44;97599.45;1755875;80;21964;-56
2022/04/10 02:06:07;;;;;;;39.38;22.25;;;;;;;1.06;92.08;97599.58;1760164;81;20893;-56
2022/04/10 02:08:35;;;;;;;55.75;26.60;;;;;;;1.07;92.15;97600.39;1746581;82;21005;-56
2022/04/10 02:11:04;;;;;;;58.75;31.10;;;;;;;1.09;90.87;97592.97;1747362;82;20978;-56
2022/04/10 02:13:30;;;;;;;;;;;;;;;1.05;90.72;97601.16;1748320;82;21314;-56
2022/04/10 02:15:56;;;;;;;38.30;23.60;;;;;;;1.03;92.38;97599.23;1747077;81;22240;-56
2022/04/10 02:18:22;;;;;;;39.92;23.12;;;;;;;1.05;92.04;97614.50;1746805;82;20874;-56
2022/04/10 02:20:47;;;;;;;42.55;24.35;;;;;;;1.07;91.64;97608.41;1731979;82;20868;-56
2022/04/10 02:23:13;;;;;;;44.70;24.70;;;;;;;1.01;91.04;97606.11;1746861;82;20964;-56
2022/04/10 02:25:40;;;;;;;49.95;26.82;;;;;;;1.01;91.46;97615.98;1747125;82;20992;-56
2022/04/10 02:28:06;;;;;;;40.63;22.52;;;;;;;1.03;90.74;97615.25;1751708;80;22165;-56
2022/04/10 02:30:32;;;;;;;42.53;23.20;;;;;;;1.05;90.91;97617.16;1763287;81;21535;-56
2022/04/10 02:32:58;;;;;;;51.80;24.32;;;;;;;1.05;92.41;97623.84;1764722;79;21254;-56
2022/04/10 02:35:24;;;;;;;87.60;38.42;;;;;;;1.10;91.06;97624.75;1764829;81;20837;-56
2022/04/10 02:37:50;;;;;;;50.30;28.17;;;;;;;1.15;90.83;97628.61;1755809;81;20968;-56
2022/04/10 02:40:16;;;;;;;40.48;24.50;;;;;;;1.08;93.48;97628.70;1747056;82;21976;-56
2022/04/10 02:42:42;;;;;;;53.25;29.10;;;;;;;1.12;93.38;97633.89;1746580;82;21060;-56
2022/04/10 02:45:10;;;;;;;49.18;27.65;;;;;;;1.20;92.31;97632.23;1747101;82;21587;-56
2022/04/10 02:47:35;;;;;;;43.48;24.35;;;;;;;1.28;92.09;97635.91;1719772;82;21520;-56
2022/04/10 02:50:02;;;;;;;45.65;24.82;;;;;;;1.36;91.76;97640.88;1744692;82;21579;-56
2022/04/10 02:52:28;;;;;;;162.03;58.98;;;;;;;1.39;91.62;97630.28;1717064;81;21279;-56
2022/04/10 02:54:54;;;;;;;61.33;31.30;;;;;;;1.40;90.87;97635.91;1753460;80;20992;-56
2022/04/10 02:57:20;;;;;;;71.67;36.60;;;;;;;1.39;90.38;97636.95;1746942;82;21020;-56
2022/04/10 02:59:45;;;;;;;48.13;29.45;;;;;;;1.39;90.60;97635.10;1751876;80;20841;-56
2022/04/10 03:02:12;;;;;;;41.88;23.80;;;;;;;1.41;91.69;97642.35;1744955;82;22049;-56
2022/04/10 03:04:37;;;;;;;40.40;21.85;;;;;;;1.44;91.47;97650.94;1755752;81;21156;-56
2022/04/10 03:07:04;;;;;;;35.95;20.50;;;;;;;1.39;92.39;97648.97;1745074;81;20912;-56
2022/04/10 03:09:30;;;;;;;32.25;19.27;;;;;;;1.39;91.40;97651.64;1744962;82;21055;-56
2022/04/10 03:11:56;;;;;;;33.50;21.33;;;;;;;1.35;92.14;97651.27;1746988;82;20944;-55
2022/04/10 03:14:21;;;;;;;38.08;23.42;;;;;;;1.36;92.63;97657.42;1753877;81;21035;-56
2022/04/10 03:16:47;;;;;;;37.15;22.87;;;;;;;1.31;92.45;97662.13;1764743;81;21388;-55
2022/04/10 03:19:13;;;;;;;43.10;28.42;;;;;;;1.33;92.45;97665.38;1754386;79;20872;-56
2022/04/10 03:21:39;;;;;;;46.35;27.93;;;;;;;1.36;92.43;97662.77;1751410;81;20944;-56
2022/04/10 03:24:06;;;;;;;40.70;23.87;;;;;;;1.42;92.53;97667.20;1746847;82;21515;-56
2022/04/10 03:26:32;;;;;;;37.28;20.02;;;;;;;1.45;91.92;97670.73;1746636;82;21579;-56
2022/04/10 03:28:58;;;;;;;35.13;20.17;;;;;;;1.49;92.27;97675.92;1743461;82;21343;-56
2022/04/10 03:31:24;;;;;;;37.23;19.55;;;;;;;1.56;91.66;97677.97;1739471;82;20905;-56
2022/04/10 03:33:50;;;;;;;37.23;21.12;;;;;;;1.60;91.71;97680.98;1757094;79;20963;-56
2022/04/10 03:36:17;;;;;;;45.67;23.90;;;;;;;1.65;91.21;97681.92;1764621;81;21009;-56
2022/04/10 03:38:42;;;;;;;39.00;23.22;;;;;;;1.70;90.94;97687.89;1749105;81;21063;-56
2022/04/10 03:41:08;;;;;;;55.88;27.40;;;;;;;1.80;90.84;97687.35;1764890;81;21162;-57
2022/04/10 03:43:34;;;;;;;41.80;25.08;;;;;;;1.92;90.63;97689.49;1752624;81;20967;-56
2022/04/10 03:46:00;;;;;;;36.03;20.72;;;;;;;2.01;90.76;97697.97;1758320;81;20957;-56
2022/04/10 03:48:26;;;;;;;31.37;18.05;;;;;;;2.09;90.82;97696.29;1734726;82;20976;-56
2022/04/10 03:50:52;;;;;;;24.32;14.47;;;;;;;2.13;91.22;97700.92;1744802;82;20960;-56
2022/04/10 03:53:18;;;;;;;21.82;12.93;;;;;;;2.17;90.31;97699.95;1738619;82;21269;-56
2022/04/10 03:55:44;;;;;;;18.67;12.95;;;;;;;2.17;90.80;97711.98;1746593;82;21122;-56
2022/04/10 03:58:10;;;;;;;23.42;12.68;;;;;;;2.18;91.22;97712.27;1746740;82;20874;-56
2022/04/10 04:00:36;;;;;;;26.45;14.47;;;;;;;2.18;90.78;97707.73;1746900;82;20979;-56
2022/04/10 04:03:02;;;;;;;24.65;15.40;;;;;;;2.23;90.35;97719.89;1746972;82;20893;-56
2022/04/10 04:05:28;;;;;;;42.93;24.18;;;;;;;2.27;90.40;97720.22;1762115;81;21145;-56
2022/04/10 04:07:54;;;;;;;55.38;27.93;;;;;;;2.31;90.17;97723.23;1734824;81;21150;-56
2022/04/10 04:10:21;;;;;;;49.18;28.80;;;;;;;2.35;89.95;97726.55;1734645;82;21567;-56
2022/04/10 04:12:47;;;;;;;44.08;25.88;;;;;;;2.38;90.00;97724.73;1734718;81;20996;-56
2022/04/10 04:15:12;;;;;;;43.02;23.80;;;;;;;2.41;89.88;97727.48;1756750;81;21015;-56
2022/04/10 04:17:39;;;;;;;59.73;30.77;;;;;;;2.46;89.82;97729.73;1764384;79;21228;-56
2022/04/10 04:20:06;;;;;;;47.90;25.48;;;;;;;2.51;89.53;97732.53;1760970;81;21434;-56
2022/04/10 04:22:34;;;;;;;49.25;28.90;;;;;;;2.50;89.35;97733.58;1761868;80;21054;-56
2022/04/10 04:25:00;;;;;;;51.13;27.58;;;;;;;2.53;89.65;97737.11;1744641;81;21003;-56
2022/04/10 04:27:26;;;;;;;56.98;30.85;;;;;;;2.55;89.60;97739.02;1744504;82;21095;-56
2022/04/10 04:29:52;;;;;;;43.08;24.40;;;;;;;2.57;89.65;97746.02;1738608;82;22008;-56
2022/04/10 04:32:18;;;;;;;51.02;26.55;;;;;;;2.59;90.09;97746.06;1743967;82;20874;-56
2022/04/10 04:34:44;;;;;;;48.95;28.27;;;;;;;2.62;89.77;97748.79;1746979;80;20908;-56
2022/04/10 04:37:10;;;;;;;42.78;22.93;;;;;;;2.63;89.75;97754.42;1728322;82;20852;-56
2022/04/10 04:39:35;;;;;;;37.63;21.62;;;;;;;2.65;89.52;97761.69;1744581;82;20933;-56
2022/04/10 04:42:01;;;;;;;74.87;33.10;;;;;;;2.67;89.63;97764.44;1758567;81;21097;-56
2022/04/10 04:44:30;;;;;;;37.93;22.02;;;;;;;2.71;89.42;97766.91;1739002;81;21011;-56
2022/04/10 04:46:55;;;;;;;46.55;25.37;;;;;;;2.76;89.21;97763.02;1734135;82;21063;-56
2022/04/10 04:49:21;;;;;;;61.40;30.43;;;;;;;2.79;89.20;97760.39;1751100;81;20998;-56
2022/04/10 04:51:47;;;;;;;35.98;17.17;;;;;;;2.87;89.25;97770.73;1748601;81;20876;-56
2022/04/10 04:54:13;;;;;;;22.55;13.93;;;;;;;2.94;89.10;97763.39;1743685;82;21423;-56
2022/04/10 04:56:39;;;;;;;27.65;16.70;;;;;;;3.04;89.04;97768.13;1754514;81;20884;-57
2022/04/10 04:59:04;;;;;;;23.70;16.27;;;;;;;3.10;88.20;97768.53;1746766;81;20909;-56
2022/04/10 05:01:30;;;;;;;29.07;16.12;;;;;;;3.16;88.15;97768.08;1747328;82;20916;-56
2022/04/10 05:03:56;;;;;;;36.20;22.30;;;;;;;3.16;87.95;97772.91;1751522;79;20904;-56
2022/04/10 05:06:22;;;;;;;29.02;17.67;;;;;;;3.21;88.10;97776.23;1739404;82;20989;-56
2022/04/10 05:08:48;;;;;;;25.85;17.73;;;;;;;3.27;88.13;97773.95;1749764;81;20869;-56
2022/04/10 05:11:14;;;;;;;14.18;8.45;;;;;;;3.33;88.25;97772.47;1755347;81;20963;-56
2022/04/10 05:13:41;;;;;;;12.20;7.87;;;;;;;3.42;87.96;97784.11;1734230;81;21022;-56
2022/04/10 05:16:07;;;;;;;13.95;7.70;;;;;;;3.47;86.54;97778.86;1747716;81;20992;-56
2022/04/10 05:18:33;;;;;;;13.68;7.83;;;;;;;3.55;87.26;97783.84;1756239;81;21124;-56
2022/04/10 05:20:59;;;;;;;15.63;8.40;;;;;;;3.57;87.27;97779.05;1703418;82;21011;-56
2022/04/10 05:23:25;;;;;;;13.60;8.03;;;;;;;3.70;87.32;97792.69;1734530;81;20908;-56
2022/04/10 05:25:51;;;;;;;9.73;6.65;;;;;;;3.73;85.62;97794.34;1759863;81;20936;-56
2022/04/10 05:28:17;;;;;;;11.22;6.62;;;;;;;3.71;84.09;97788.95;1734727;82;21056;-56
2022/04/10 05:30:43;;;;;;;12.30;6.58;;;;;;;3.74;83.83;97797.31;1746098;82;22289;-56
2022/04/10 05:33:10;;;;;;;16.20;8.88;;;;;;;3.65;81.05;97794.73;1746951;82;20870;-56
2022/04/10 05:35:36;;;;;;;13.85;10.18;;;;;;;3.72;82.09;97802.10;1746815;81;21000;-56
2022/04/10 05:38:04;;;;;;;13.83;10.78;;;;;;;3.79;82.52;97799.28;1759784;80;20873;-56
2022/04/10 05:40:30;;;;;;;33.28;26.75;;;;;;;3.87;83.30;97803.72;1738461;81;21023;-56
2022/04/10 05:42:56;;;;;;;24.82;21.27;;;;;;;3.87;81.11;97813.10;1740486;80;21901;-57
2022/04/10 05:45:22;;;;;;;10.45;7.03;;;;;;;3.86;80.97;97804.78;1740101;81;20956;-56
2022/04/10 05:47:48;;;;;;;30.05;21.30;;;;;;;3.93;81.85;97808.63;1746539;82;20956;-56
2022/04/10 05:50:14;;;;;;;22.75;20.35;;;;;;;3.91;80.63;97809.40;1746915;82;20885;-56
2022/04/10 05:52:47;;;;;;;13.80;12.35;;;;;;;3.91;80.33;97813.42;1746971;80;21012;-56
2022/04/10 05:55:15;;;;;;;28.87;25.72;;;;;;;3.84;79.00;97819.45;1746886;82;21441;-56
2022/04/10 05:57:41;;;;;;;28.07;25.12;;;;;;;3.73;77.93;97819.00;1748803;80;21051;-56
2022/04/10 06:00:14;;;;;;;17.10;15.23;;;;;;;3.69;77.89;97821.35;1751813;81;21016;-56
2022/04/10 06:02:40;;;;;;;25.30;22.70;;;;;;;3.75;78.45;97827.07;1760904;81;21044;-56
2022/04/10 06:05:07;;;;;;;12.82;10.93;;;;;;;3.74;78.09;97828.66;1747091;82;20904;-56
2022/04/10 06:07:33;;;;;;;20.17;17.75;;;;;;;3.80;78.85;97825.03;1746940;82;21691;-56
2022/04/10 06:09:59;;;;;;;17.07;11.22;;;;;;;3.82;78.18;97837.13;1746848;82;20838;-56
2022/04/10 06:12:26;;;;;;;12.10;7.28;;;;;;;3.83;78.00;97830.70;1761303;81;20932;-56
2022/04/10 06:14:52;;;;;;;19.70;17.60;;;;;;;3.88;78.42;97828.13;1748803;79;21056;-55
2022/04/10 06:17:18;;;;;;;19.85;16.97;;;;;;;3.76;76.31;97829.22;1748402;81;21481;-56
2022/04/10 06:19:44;;;;;;;21.40;14.38;;;;;;;3.88;76.76;97828.66;1744812;82;21025;-56
2022/04/10 06:22:10;;;;;;;14.73;8.93;;;;;;;3.96;77.12;97821.56;1725758;82;20967;-56
2022/04/10 06:24:36;;;;;;;14.70;13.18;;;;;;;4.11;77.43;97829.88;1734300;81;20896;-56
2022/04/10 06:27:03;;;;;;;18.62;13.40;;;;;;;4.17;76.35;97824.05;1734854;82;21004;-56
2022/04/10 06:29:29;;;;;;;17.45;15.25;;;;;;;4.22;75.49;97832.19;1744324;82;21008;-56
2022/04/10 06:31:55;;;;;;;20.68;15.32;;;;;;;4.34;75.94;97829.42;1747285;82;21500;-56
2022/04/10 06:34:21;;;;;;;19.52;13.78;;;;;;;4.35;75.60;97829.70;1760821;80;20884;-55
2022/04/10 06:36:47;;;;;;;16.20;10.65;;;;;;;4.35;75.60;97829.70;1754711;81;20885;-56
2022/04/10 06:39:15;;;;;;;9.45;7.00;;;;;;;4.46;75.73;97831.50;1757428;81;21039;-56
2022/04/10 06:41:43;;;;;;;15.72;11.57;;;;;;;4.50;75.97;97838.80;1764793;81;21011;-56
2022/04/10 06:44:09;;;;;;;21.52;10.85;;;;;;;4.44;74.08;97838.97;1745671;81;21457;-56
2022/04/10 06:46:35;;;;;;;16.23;10.85;;;;;;;4.32;73.57;97842.27;1746970;82;20921;-56
2022/04/10 06:49:01;;;;;;;11.28;8.00;;;;;;;4.36;74.36;97843.39;1747004;82;21103;-56
2022/04/10 06:51:27;;;;;;;8.75;6.12;;;;;;;4.28;73.62;97851.34;1754294;81;20900;-56
2022/04/10 06:53:53;;;;;;;11.38;7.25;;;;;;;4.45;74.79;97851.34;1748092;81;21447;-56
2022/04/10 06:56:19;;;;;;;11.20;6.00;;;;;;;4.44;74.18;97842.48;1747056;81;21542;-56
2022/04/10 06:58:45;;;;;;;13.32;10.35;;;;;;;4.37;73.52;97854.44;1749184;81;20965;-56
2022/04/10 07:01:11;;;;;;;15.70;9.95;;;;;;;4.23;73.45;97852.59;1759454;81;20893;-56
2022/04/10 07:03:37;;;;;;;13.35;7.70;;;;;;;4.17;73.78;97857.57;1748413;81;20983;-56
2022/04/10 07:06:03;;;;;;;9.95;6.90;;;;;;;4.23;73.86;97852.06;1757258;81;20979;-56
2022/04/10 07:08:29;;;;;;;13.35;6.03;;;;;;;4.13;73.40;97861.28;1734409;81;21764;-56
2022/04/10 07:10:55;;;;;;;12.65;6.85;;;;;;;4.13;72.99;97867.98;1733976;82;20920;-56
2022/04/10 07:13:21;;;;;;;10.15;6.95;;;;;;;4.05;72.63;97860.33;1739153;82;20937;-56
2022/04/10 07:15:50;;;;;;;16.70;13.20;;;;;;;4.16;72.89;97859.44;1746815;81;20989;-56
2022/04/10 07:18:16;;;;;;;13.97;9.40;;;;;;;4.15;72.65;97863.18;1747281;82;21040;-56
2022/04/10 07:20:42;;;;;;;18.77;16.07;;;;;;;4.09;71.92;97870.84;1730488;81;21326;-56
2022/04/10 07:25:53;;;;;;;39.25;32.78;;;;;;;4.14;73.19;97876.31;1711758;82;21033;-56
2022/04/10 07:28:20;;;;;;;21.12;15.72;;;;;;;4.14;72.57;97875.50;1746555;82;20916;-56
2022/04/10 07:30:46;;;;;;;13.62;9.63;;;;;;;4.27;73.48;97882.41;1760005;81;21004;-56
2022/04/10 07:33:12;;;;;;;16.80;10.85;;;;;;;4.20;72.83;97883.40;1738637;82;22414;-56
2022/04/10 07:35:40;;;;;;;14.87;8.98;;;;;;;4.07;72.65;97883.69;1746748;82;20878;-56
2022/04/10 07:38:07;;;;;;;8.83;5.50;;;;;;;4.04;72.78;97880.69;1755433;81;21072;-56
2022/04/10 07:40:34;;;;;;;9.28;6.58;;;;;;;4.05;72.24;97885.80;1747074;81;38810;-56
2022/04/10 07:43:00;;;;;;;8.43;6.15;;;;;;;3.97;71.85;97880.83;1757521;81;21074;-56
2022/04/10 07:48:10;;;;;;;15.30;10.95;;;;;;;4.38;72.36;97890.94;1734076;82;21424;-56
2022/04/10 07:50:36;;;;;;;10.93;7.25;;;;;;;4.37;71.57;97895.49;1745785;82;20909;-56
2022/04/10 07:53:02;;;;;;;6.62;5.42;;;;;;;4.49;72.39;97896.75;1746842;81;20850;-56
2022/04/10 07:55:29;;;;;;;7.22;4.05;;;;;;;4.58;72.41;97895.81;1746847;81;20834;-56
2022/04/10 07:57:54;;;;;;;12.50;10.40;;;;;;;4.62;72.25;97900.47;1754005;81;21119;-56
2022/04/10 08:00:21;;;;;;;11.68;8.85;;;;;;;4.67;72.19;97895.69;1746795;82;21095;-56
2022/04/10 08:02:48;;;;;;;12.47;5.72;;;;;;;4.63;71.27;97895.38;1747107;81;21008;-56
2022/04/10 08:05:18;;;;;;;12.70;10.70;;;;;;;4.65;71.92;97901.84;1746791;81;20989;-56
2022/04/10 08:07:44;;;;;;;9.88;6.85;;;;;;;4.64;71.34;97906.39;1746854;82;20985;-56
2022/04/10 08:10:12;;;;;;;9.90;5.70;;;;;;;4.49;70.97;97906.14;1746766;82;21083;-56
2022/04/10 08:12:39;;;;;;;11.70;6.47;;;;;;;4.49;71.27;97910.16;1746849;81;21025;-56
2022/04/10 08:15:06;;;;;;;11.05;7.65;;;;;;;4.50;71.59;97912.59;1746813;81;20996;-56
2022/04/10 08:17:32;;;;;;;12.68;6.15;;;;;;;4.45;71.23;97909.03;1746118;81;21458;-56
2022/04/10 08:19:58;;;;;;;14.10;7.28;;;;;;;4.45;70.89;97917.90;1738948;81;21167;-56
2022/04/10 08:22:25;;;;;;;8.85;5.85;;;;;;;4.43;70.69;97922.67;1764791;81;21337;-56
2022/04/10 08:24:52;;;;;;;9.70;5.70;;;;;;;4.48;71.27;97922.77;1746706;79;21015;-56
2022/04/10 08:27:17;;;;;;;13.15;8.55;;;;;;;4.50;71.41;97929.23;1735079;82;21051;-56
2022/04/10 08:29:43;;;;;;;21.40;11.45;;;;;;;4.43;70.64;97925.88;1752632;81;20889;-56
2022/04/10 08:32:09;;;;;;;12.70;6.37;;;;;;;4.32;70.31;97928.11;1764804;81;20975;-56
2022/04/10 08:34:35;;;;;;;13.93;7.67;;;;;;;4.41;71.15;97930.69;1743838;81;21568;-56
2022/04/10 08:37:05;;;;;;;18.98;9.65;;;;;;;4.48;71.39;97927.33;1752422;81;20834;-56
2022/04/10 08:39:29;;;;;;;14.35;6.40;;;;;;;4.54;70.47;97926.36;1749178;81;21055;-56
2022/04/10 08:41:55;;;;;;;34.15;16.07;;;;;;;4.79;70.28;97937.52;1747238;81;21033;-56
2022/04/10 08:44:22;;;;;;;26.20;14.83;;;;;;;5.33;70.57;97938.30;1746821;81;20945;-56
2022/04/10 08:46:49;;;;;;;13.98;7.42;;;;;;;5.33;70.57;97938.30;1747104;82;21680;-56
2022/04/10 08:49:14;;;;;;;9.28;4.47;;;;;;;5.56;69.36;97936.74;1753236;81;20992;-56
2022/04/10 08:51:40;;;;;;;12.68;5.40;;;;;;;5.73;69.42;97945.28;1749787;81;20940;-56
2022/04/10 08:54:07;;;;;;;16.37;6.95;;;;;;;5.82;68.91;97937.88;1738101;82;21487;-56
2022/04/10 08:56:33;;;;;;;14.10;7.28;;;;;;;5.94;65.80;97941.80;1717862;81;21417;-56
2022/04/10 08:58:59;;;;;;;13.88;6.95;;;;;;;6.09;67.55;97943.85;1743726;81;21537;-56
2022/04/10 09:01:25;;;;;;;10.00;4.50;;;;;;;5.97;66.44;97944.50;1746832;82;20905;-56
2022/04/10 09:03:51;;;;;;;10.85;5.20;;;;;;;5.67;64.56;97944.40;1747095;81;21369;-56
2022/04/10 09:06:17;;;;;;;8.15;4.90;;;;;;;5.55;65.14;97941.81;1746901;81;20858;-56
2022/04/10 09:08:44;;;;;;;25.85;13.72;;;;;;;5.59;66.54;97942.14;1747070;81;20901;-57
2022/04/10 09:11:10;;;;;;;20.05;10.08;;;;;;;5.57;66.22;97938.90;1746770;82;21440;-56
2022/04/10 09:13:49;;;;;;;13.58;6.95;;;;;;;5.64;67.36;97943.03;1746832;82;21361;-56
2022/04/10 09:16:22;;;;;;;13.78;6.67;;;;;;;5.60;65.73;97944.58;1746766;81;20981;-56
2022/04/10 09:19:08;;;;;;;11.78;4.87;;;;;;;5.47;65.39;97946.30;1749472;81;21000;-56
2022/04/10 09:21:35;;;;;;;10.48;4.78;;;;;;;5.39;65.70;97942.70;1758193;81;21051;-56
2022/04/10 09:24:08;;;;;;;11.53;6.00;;;;;;;5.48;67.17;97945.77;1744805;81;21084;-56
2022/04/10 09:26:52;;;;;;;10.75;6.70;;;;;;;5.48;66.24;97949.80;1739974;82;21440;-56
2022/04/10 09:29:20;;;;;;;12.73;6.15;;;;;;;5.25;65.43;97946.25;1741476;82;20988;-56
2022/04/10 09:31:46;;;;;;;9.20;5.80;;;;;;;5.24;66.02;97945.16;1741415;82;21291;-56
2022/04/10 09:34:20;;;;;;;9.80;5.65;;;;;;;5.73;66.58;97937.22;1737569;81;21023;-56
2022/04/10 09:36:48;;;;;;;10.53;5.90;;;;;;;6.43;65.57;97937.20;1742918;81;21319;-56
2022/04/10 09:39:32;;;;;;;10.68;5.10;;;;;;;7.03;65.08;97935.28;1757142;81;21063;-56
2022/04/10 09:42:09;;;;;;;10.72;6.72;;;;;;;7.10;64.39;97934.53;1745589;81;21003;-55
2022/04/10 09:44:37;;;;;;;11.70;7.42;;;;;;;7.20;64.39;97934.59;1739269;82;21378;-56
2022/04/10 09:47:08;;;;;;;11.03;5.75;;;;;;;7.31;65.28;97930.88;1742289;82;21009;-56
2022/04/10 09:49:36;;;;;;;13.68;5.67;;;;;;;7.44;64.72;97934.20;1740643;82;21190;-56
2022/04/10 09:52:11;;;;;;;11.15;6.30;;;;;;;7.66;64.59;97929.44;1753415;81;21052;-56
2022/04/10 09:54:52;;;;;;;11.90;7.60;;;;;;;7.79;63.84;97924.93;1736893;81;21023;-56
2022/04/10 09:57:19;;;;;;;10.05;7.03;;;;;;;7.62;61.57;97927.82;1738827;81;20980;-56
2022/04/10 09:59:48;;;;;;;9.45;5.90;;;;;;;7.90;61.89;97923.07;1746840;81;21063;-56
2022/04/10 10:02:16;;;;;;;;;;;;;;;7.83;60.57;97921.96;1749098;82;21414;-56
2022/04/10 10:04:43;;;;;;;13.75;7.42;;;;;;;7.72;60.45;97927.05;1746495;82;20623;-56
2022/04/10 10:07:20;;;;;;;13.32;5.78;;;;;;;7.59;61.90;97924.28;1746762;82;21009;-56
2022/04/10 10:09:48;;;;;;;9.90;6.17;;;;;;;7.24;59.62;97926.25;1746587;81;20992;-56
2022/04/10 10:12:15;;;;;;;14.75;6.67;;;;;;;7.05;60.64;97916.97;1757852;81;21028;-56
2022/04/10 10:14:41;;;;;;;12.80;6.12;;;;;;;7.31;62.24;97917.41;1739980;81;22150;-56
2022/04/10 10:17:08;;;;;;;11.68;6.25;;;;;;;7.73;60.03;97921.12;1754731;81;20845;-56
2022/04/10 10:19:38;;;;;;;10.88;5.83;;;;;;;7.90;61.14;97917.14;1748695;81;21007;-56
2022/04/10 10:22:06;;;;;;;13.38;5.30;;;;;;;8.30;59.47;97908.08;1743401;81;21003;-56
2022/04/10 10:24:56;;;;;;;12.95;4.42;;;;;;;7.89;54.57;97913.36;1743928;81;21016;-56
2022/04/10 10:27:36;;;;;;;11.35;4.40;;;;;;;7.72;53.05;97910.06;1760782;81;21674;-56
2022/04/10 10:30:28;;;;;;;7.40;4.80;;;;;;;7.08;53.60;97914.55;1762269;81;21449;-55
2022/04/10 10:32:56;;;;;;;7.50;5.72;;;;;;;6.39;56.05;97922.63;1758885;81;21111;-55
2022/04/10 10:35:37;;;;;;;13.83;6.25;;;;;;;5.94;60.00;97929.16;1744623;82;20989;-58
2022/04/10 10:38:04;;;;;;;11.03;7.12;;;;;;;5.46;62.37;97927.71;1699229;82;20988;-56
2022/04/10 10:40:31;;;;;;;13.50;6.03;;;;;;;5.39;63.61;97926.57;1724936;82;22098;-55
2022/04/10 10:42:59;;;;;;;13.18;7.50;;;;;;;5.14;66.14;97933.74;1734385;81;21417;-56
2022/04/10 10:45:41;;;;;;;12.65;6.97;;;;;;;5.01;66.88;97930.86;1734629;82;21083;-55
2022/04/10 10:48:33;;;;;;;29.60;17.23;;;;;;;5.07;68.61;97935.78;1716588;82;21012;-56
2022/04/10 10:51:18;;;;;;;11.70;7.42;;;;;;;5.12;69.10;97940.40;1746471;81;21088;-56
2022/04/10 10:53:47;;;;;;;20.70;10.55;;;;;;;4.94;70.15;97947.66;1746335;81;21216;-56
2022/04/10 10:56:33;;;;;;;21.70;13.03;;;;;;;5.30;68.44;97948.21;1752171;81;22088;-56
2022/04/10 10:59:32;;;;;;;20.95;14.30;;;;;;;5.50;68.62;97952.52;1747954;81;21024;-56
2022/04/10 11:02:10;;;;;;;112.50;48.20;;;;;;;5.66;68.42;97946.81;1746764;81;20993;-57
2022/04/10 11:04:50;;;;;;;260.00;101.62;;;;;;;5.79;67.67;97940.23;1746415;82;20984;-57
2022/04/10 11:07:22;;;;;;;344.75;143.43;;;;;;;5.93;67.12;97950.93;1746746;82;23103;-57
2022/04/10 11:10:04;;;;;;;46.23;21.33;;;;;;;6.20;66.30;97938.85;1764052;79;21000;-56
2022/04/10 11:12:42;;;;;;;113.08;51.92;;;;;;;6.30;64.75;97942.17;1749655;81;21021;-56
2022/04/10 11:15:23;;;;;;;67.80;28.90;;;;;;;6.82;65.56;97938.34;1746957;82;21462;-57
2022/04/10 11:17:52;;;;;;;17.60;8.60;;;;;;;7.38;65.94;97934.70;1757555;81;21472;-56
2022/04/10 11:20:24;;;;;;;;;;;;;;;7.81;63.71;97939.50;1740184;82;21097;-56
2022/04/10 11:22:57;;;;;;;11.08;6.75;;;;;;;8.13;62.20;97918.56;1757084;81;20168;-57
2022/04/10 11:25:31;;;;;;;19.12;7.08;;;;;;;8.11;61.84;97923.94;1744427;82;20949;-57
2022/04/10 11:27:59;;;;;;;12.73;7.28;;;;;;;7.76;62.02;97927.33;1746975;81;21008;-57
2022/04/10 11:30:33;;;;;;;11.25;6.87;;;;;;;7.84;63.12;97926.81;1746314;82;20997;-57
2022/04/10 11:33:05;;;;;;;10.78;6.00;;;;;;;7.47;58.93;97926.39;1746754;82;21083;-57
2022/04/10 11:35:36;;;;;;;14.75;8.25;;;;;;;7.61;57.19;97926.20;1746842;82;21055;-57
2022/04/10 11:38:13;;;;;;;9.08;4.72;;;;;;;8.05;60.20;97918.27;1727128;82;21083;-57